sensor_id;sensor_type;location;lat;lon;timestamp;temperature;humidity
18073;DHT22;9161;47.348;9.648;2023-08-06T00:04:25;14.10;99.90
18073;DHT22;9161;47.348;9.648;2023-08-06T00:09:28;14.10;99.90
18073;DHT22;9161;47.348;9.648;2023-08-06T00:14:31;14.10;99.90
18073;DHT22;9161;47.348;9.648;2023-08-06T00:19:32;14.10;99.90
18073;DHT22;9161;47.348;9.648;2023-08-06T00:24:36;14.00;99.90
18073;DHT22;9161;47.348;9.648;2023-08-06T00:29:38;14.00;99.90
18073;DHT22;9161;47.348;9.648;2023-08-06T00:34:39;13.90;99.90
18073;DHT22;9161;47.348;9.648;2023-08-06T00:39:43;13.90;99.90
18073;DHT22;9161;47.348;9.648;2023-08-06T00:44:45;13.90;99.90
18073;DHT22;9161;47.348;9.648;2023-08-06T00:49:47;13.90;99.90
18073;DHT22;9161;47.348;9.648;2023-08-06T00:54:50;13.90;99.90
18073;DHT22;9161;47.348;9.648;2023-08-06T00:59:54;13.90;99.90
18073;DHT22;9161;47.348;9.648;2023-08-06T01:04:56;13.80;99.90
18073;DHT22;9161;47.348;9.648;2023-08-06T01:10:15;13.90;99.90
18073;DHT22;9161;47.348;9.648;2023-08-06T01:15:23;13.90;99.90
18073;DHT22;9161;47.348;9.648;2023-08-06T01:20:30;13.90;99.90
18073;DHT22;9161;47.348;9.648;2023-08-06T01:25:34;13.70;99.90
18073;DHT22;9161;47.348;9.648;2023-08-06T01:30:41;13.60;99.90
18073;DHT22;9161;47.348;9.648;2023-08-06T01:35:46;13.50;99.90
18073;DHT22;9161;47.348;9.648;2023-08-06T01:40:49;13.40;99.90
18073;DHT22;9161;47.348;9.648;2023-08-06T01:45:51;13.50;99.90
18073;DHT22;9161;47.348;9.648;2023-08-06T01:50:54;13.40;99.90
18073;DHT22;9161;47.348;9.648;2023-08-06T01:55:56;13.30;99.90
18073;DHT22;9161;47.348;9.648;2023-08-06T02:00:58;13.20;99.90
18073;DHT22;9161;47.348;9.648;2023-08-06T02:06:02;13.10;99.90
18073;DHT22;9161;47.348;9.648;2023-08-06T02:11:04;13.10;99.90
18073;DHT22;9161;47.348;9.648;2023-08-06T02:16:07;13.20;99.90
18073;DHT22;9161;47.348;9.648;2023-08-06T02:21:11;13.10;99.90
18073;DHT22;9161;47.348;9.648;2023-08-06T02:26:13;13.10;99.90
18073;DHT22;9161;47.348;9.648;2023-08-06T02:31:15;13.10;99.90
18073;DHT22;9161;47.348;9.648;2023-08-06T02:36:19;13.10;99.90
18073;DHT22;9161;47.348;9.648;2023-08-06T02:41:21;13.10;99.90
18073;DHT22;9161;47.348;9.648;2023-08-06T02:46:23;13.00;99.90
18073;DHT22;9161;47.348;9.648;2023-08-06T02:51:26;13.00;99.90
18073;DHT22;9161;47.348;9.648;2023-08-06T02:56:28;13.00;99.90
18073;DHT22;9161;47.348;9.648;2023-08-06T03:01:31;13.00;99.90
18073;DHT22;9161;47.348;9.648;2023-08-06T03:06:35;13.00;99.90
18073;DHT22;9161;47.348;9.648;2023-08-06T03:11:37;13.00;99.90
18073;DHT22;9161;47.348;9.648;2023-08-06T03:16:39;13.00;99.90
18073;DHT22;9161;47.348;9.648;2023-08-06T03:21:43;12.80;99.90
18073;DHT22;9161;47.348;9.648;2023-08-06T03:26:45;12.80;99.90
18073;DHT22;9161;47.348;9.648;2023-08-06T03:31:47;12.90;99.90
18073;DHT22;9161;47.348;9.648;2023-08-06T03:36:51;12.90;99.90
18073;DHT22;9161;47.348;9.648;2023-08-06T03:41:52;12.80;99.90
18073;DHT22;9161;47.348;9.648;2023-08-06T03:46:54;13.00;99.90
18073;DHT22;9161;47.348;9.648;2023-08-06T03:51:58;12.90;99.90
18073;DHT22;9161;47.348;9.648;2023-08-06T03:57:00;12.80;99.90
18073;DHT22;9161;47.348;9.648;2023-08-06T04:02:02;12.90;99.90
18073;DHT22;9161;47.348;9.648;2023-08-06T04:07:06;12.80;99.90
18073;DHT22;9161;47.348;9.648;2023-08-06T04:12:08;12.80;99.90
18073;DHT22;9161;47.348;9.648;2023-08-06T04:17:10;12.70;99.90
18073;DHT22;9161;47.348;9.648;2023-08-06T04:22:14;12.70;99.90
18073;DHT22;9161;47.348;9.648;2023-08-06T04:27:17;12.80;99.90
18073;DHT22;9161;47.348;9.648;2023-08-06T04:32:19;12.80;99.90
18073;DHT22;9161;47.348;9.648;2023-08-06T04:37:23;12.90;99.90
18073;DHT22;9161;47.348;9.648;2023-08-06T04:42:25;12.90;99.90
18073;DHT22;9161;47.348;9.648;2023-08-06T04:47:27;12.90;99.90
18073;DHT22;9161;47.348;9.648;2023-08-06T04:52:31;13.00;99.90
18073;DHT22;9161;47.348;9.648;2023-08-06T04:57:33;12.90;99.90
18073;DHT22;9161;47.348;9.648;2023-08-06T05:02:36;13.00;99.90
18073;DHT22;9161;47.348;9.648;2023-08-06T05:07:40;13.10;99.90
18073;DHT22;9161;47.348;9.648;2023-08-06T05:12:43;13.20;99.90
18073;DHT22;9161;47.348;9.648;2023-08-06T05:17:44;13.30;99.90
18073;DHT22;9161;47.348;9.648;2023-08-06T05:22:48;13.40;99.90
18073;DHT22;9161;47.348;9.648;2023-08-06T05:27:50;13.60;99.90
18073;DHT22;9161;47.348;9.648;2023-08-06T05:32:54;13.60;99.90
18073;DHT22;9161;47.348;9.648;2023-08-06T05:37:57;13.50;99.90
18073;DHT22;9161;47.348;9.648;2023-08-06T05:42:59;13.50;99.90
18073;DHT22;9161;47.348;9.648;2023-08-06T05:48:01;13.60;99.90
18073;DHT22;9161;47.348;9.648;2023-08-06T05:53:05;13.60;99.90
18073;DHT22;9161;47.348;9.648;2023-08-06T05:58:07;13.60;99.90
18073;DHT22;9161;47.348;9.648;2023-08-06T06:03:10;13.60;99.90
18073;DHT22;9161;47.348;9.648;2023-08-06T06:08:13;13.70;99.90
18073;DHT22;9161;47.348;9.648;2023-08-06T06:13:15;13.70;99.90
18073;DHT22;9161;47.348;9.648;2023-08-06T06:18:17;13.70;99.90
18073;DHT22;9161;47.348;9.648;2023-08-06T06:23:20;13.70;99.90
18073;DHT22;9161;47.348;9.648;2023-08-06T06:28:25;13.70;99.90
18073;DHT22;9161;47.348;9.648;2023-08-06T06:33:27;13.80;99.90
18073;DHT22;9161;47.348;9.648;2023-08-06T06:38:30;14.00;99.90
18073;DHT22;9161;47.348;9.648;2023-08-06T06:43:32;14.10;99.90
18073;DHT22;9161;47.348;9.648;2023-08-06T06:48:34;14.10;99.90
18073;DHT22;9161;47.348;9.648;2023-08-06T06:53:38;14.10;99.90
18073;DHT22;9161;47.348;9.648;2023-08-06T06:58:40;14.10;99.90
18073;DHT22;9161;47.348;9.648;2023-08-06T07:03:42;14.00;99.90
18073;DHT22;9161;47.348;9.648;2023-08-06T07:08:45;13.90;99.90
18073;DHT22;9161;47.348;9.648;2023-08-06T07:13:49;13.80;99.90
18073;DHT22;9161;47.348;9.648;2023-08-06T07:18:52;14.10;99.90
18073;DHT22;9161;47.348;9.648;2023-08-06T07:23:56;14.70;99.90
18073;DHT22;9161;47.348;9.648;2023-08-06T07:28:59;14.40;99.90
18073;DHT22;9161;47.348;9.648;2023-08-06T07:34:02;14.20;99.90
18073;DHT22;9161;47.348;9.648;2023-08-06T07:39:05;14.20;99.90
18073;DHT22;9161;47.348;9.648;2023-08-06T07:44:07;14.20;99.90
18073;DHT22;9161;47.348;9.648;2023-08-06T07:49:09;14.20;99.90
18073;DHT22;9161;47.348;9.648;2023-08-06T07:54:14;14.30;99.90
18073;DHT22;9161;47.348;9.648;2023-08-06T07:59:16;14.80;99.90
18073;DHT22;9161;47.348;9.648;2023-08-06T08:04:18;15.20;99.90
18073;DHT22;9161;47.348;9.648;2023-08-06T08:09:24;15.30;99.90
18073;DHT22;9161;47.348;9.648;2023-08-06T08:14:26;15.40;99.90
18073;DHT22;9161;47.348;9.648;2023-08-06T08:19:29;15.40;99.90
18073;DHT22;9161;47.348;9.648;2023-08-06T08:24:32;15.50;99.90
18073;DHT22;9161;47.348;9.648;2023-08-06T08:29:35;15.60;99.90
18073;DHT22;9161;47.348;9.648;2023-08-06T08:34:37;15.70;99.90
18073;DHT22;9161;47.348;9.648;2023-08-06T08:39:40;15.70;99.90
18073;DHT22;9161;47.348;9.648;2023-08-06T08:44:43;15.90;99.90
18073;DHT22;9161;47.348;9.648;2023-08-06T08:49:46;16.00;99.90
18073;DHT22;9161;47.348;9.648;2023-08-06T08:54:51;16.20;99.90
18073;DHT22;9161;47.348;9.648;2023-08-06T08:59:54;16.30;99.90
18073;DHT22;9161;47.348;9.648;2023-08-06T09:04:58;16.10;99.90
18073;DHT22;9161;47.348;9.648;2023-08-06T09:10:07;16.30;99.90
18073;DHT22;9161;47.348;9.648;2023-08-06T09:15:12;16.50;99.90
18073;DHT22;9161;47.348;9.648;2023-08-06T09:20:15;16.80;99.90
18073;DHT22;9161;47.348;9.648;2023-08-06T09:25:23;16.70;99.90
18073;DHT22;9161;47.348;9.648;2023-08-06T09:30:30;16.60;99.90
18073;DHT22;9161;47.348;9.648;2023-08-06T09:35:32;16.10;99.90
18073;DHT22;9161;47.348;9.648;2023-08-06T09:40:36;15.90;99.90
18073;DHT22;9161;47.348;9.648;2023-08-06T09:45:38;15.40;99.90
18073;DHT22;9161;47.348;9.648;2023-08-06T09:50:40;14.60;99.90
18073;DHT22;9161;47.348;9.648;2023-08-06T09:55:45;14.30;99.90
18073;DHT22;9161;47.348;9.648;2023-08-06T10:00:47;14.10;99.90
18073;DHT22;9161;47.348;9.648;2023-08-06T10:05:49;14.30;99.90
18073;DHT22;9161;47.348;9.648;2023-08-06T10:10:53;14.30;99.90
18073;DHT22;9161;47.348;9.648;2023-08-06T10:15:55;14.50;99.90
18073;DHT22;9161;47.348;9.648;2023-08-06T10:20:59;14.80;99.90
18073;DHT22;9161;47.348;9.648;2023-08-06T10:26:03;15.10;99.90
18073;DHT22;9161;47.348;9.648;2023-08-06T10:31:06;15.70;99.90
18073;DHT22;9161;47.348;9.648;2023-08-06T10:36:09;15.70;99.90
18073;DHT22;9161;47.348;9.648;2023-08-06T10:41:16;16.10;99.90
18073;DHT22;9161;47.348;9.648;2023-08-06T10:46:27;15.80;99.90
18073;DHT22;9161;47.348;9.648;2023-08-06T10:51:29;15.70;99.90
18073;DHT22;9161;47.348;9.648;2023-08-06T10:56:40;15.60;99.90
18073;DHT22;9161;47.348;9.648;2023-08-06T11:01:42;15.40;99.90
18073;DHT22;9161;47.348;9.648;2023-08-06T11:06:52;15.40;99.90
18073;DHT22;9161;47.348;9.648;2023-08-06T11:11:57;15.50;99.90
18073;DHT22;9161;47.348;9.648;2023-08-06T11:17:00;15.60;99.90
18073;DHT22;9161;47.348;9.648;2023-08-06T11:22:02;15.60;99.90
18073;DHT22;9161;47.348;9.648;2023-08-06T11:27:12;15.70;99.90
18073;DHT22;9161;47.348;9.648;2023-08-06T11:32:15;15.70;99.90
18073;DHT22;9161;47.348;9.648;2023-08-06T11:37:21;15.30;99.90
18073;DHT22;9161;47.348;9.648;2023-08-06T11:42:26;15.30;99.90
18073;DHT22;9161;47.348;9.648;2023-08-06T11:47:28;15.30;99.90
18073;DHT22;9161;47.348;9.648;2023-08-06T11:52:30;15.00;99.90
18073;DHT22;9161;47.348;9.648;2023-08-06T11:57:38;15.20;99.90
18073;DHT22;9161;47.348;9.648;2023-08-06T12:02:43;15.20;99.90
18073;DHT22;9161;47.348;9.648;2023-08-06T12:07:49;15.10;99.90
18073;DHT22;9161;47.348;9.648;2023-08-06T12:12:53;15.40;99.90
18073;DHT22;9161;47.348;9.648;2023-08-06T12:17:57;15.80;99.90
18073;DHT22;9161;47.348;9.648;2023-08-06T12:23:00;16.00;99.90
18073;DHT22;9161;47.348;9.648;2023-08-06T12:28:03;16.00;99.90
18073;DHT22;9161;47.348;9.648;2023-08-06T12:33:06;15.90;99.90
18073;DHT22;9161;47.348;9.648;2023-08-06T12:38:09;15.60;99.90
18073;DHT22;9161;47.348;9.648;2023-08-06T12:43:13;15.80;99.90
18073;DHT22;9161;47.348;9.648;2023-08-06T12:48:15;16.10;99.90
18073;DHT22;9161;47.348;9.648;2023-08-06T12:53:17;16.00;99.90
18073;DHT22;9161;47.348;9.648;2023-08-06T12:58:23;16.40;99.90
18073;DHT22;9161;47.348;9.648;2023-08-06T13:03:25;16.70;99.90
18073;DHT22;9161;47.348;9.648;2023-08-06T13:08:34;16.10;99.90
18073;DHT22;9161;47.348;9.648;2023-08-06T13:13:42;15.90;99.90
18073;DHT22;9161;47.348;9.648;2023-08-06T13:18:46;15.60;99.90
18073;DHT22;9161;47.348;9.648;2023-08-06T13:23:51;15.50;99.90
18073;DHT22;9161;47.348;9.648;2023-08-06T13:28:57;15.60;99.90
18073;DHT22;9161;47.348;9.648;2023-08-06T13:34:02;16.00;99.90
18073;DHT22;9161;47.348;9.648;2023-08-06T13:39:07;16.40;99.90
18073;DHT22;9161;47.348;9.648;2023-08-06T13:44:14;16.50;99.90
18073;DHT22;9161;47.348;9.648;2023-08-06T13:49:19;17.10;99.90
18073;DHT22;9161;47.348;9.648;2023-08-06T13:54:23;17.40;99.90
18073;DHT22;9161;47.348;9.648;2023-08-06T13:59:29;17.40;99.90
18073;DHT22;9161;47.348;9.648;2023-08-06T14:04:33;16.60;99.90
18073;DHT22;9161;47.348;9.648;2023-08-06T14:09:39;15.80;99.90
18073;DHT22;9161;47.348;9.648;2023-08-06T14:14:46;15.20;99.90
18073;DHT22;9161;47.348;9.648;2023-08-06T14:19:50;14.90;99.90
18073;DHT22;9161;47.348;9.648;2023-08-06T14:24:55;14.70;99.90
18073;DHT22;9161;47.348;9.648;2023-08-06T14:30:02;14.80;99.90
18073;DHT22;9161;47.348;9.648;2023-08-06T14:35:08;14.90;99.90
18073;DHT22;9161;47.348;9.648;2023-08-06T14:40:13;14.80;99.90
18073;DHT22;9161;47.348;9.648;2023-08-06T14:45:20;15.10;99.90
18073;DHT22;9161;47.348;9.648;2023-08-06T14:50:25;15.40;99.90
18073;DHT22;9161;47.348;9.648;2023-08-06T14:55:29;15.50;99.90
18073;DHT22;9161;47.348;9.648;2023-08-06T15:00:36;16.20;99.90
18073;DHT22;9161;47.348;9.648;2023-08-06T15:05:45;16.50;99.90
18073;DHT22;9161;47.348;9.648;2023-08-06T15:10:52;16.30;99.90
18073;DHT22;9161;47.348;9.648;2023-08-06T15:15:59;15.80;99.90
18073;DHT22;9161;47.348;9.648;2023-08-06T15:21:07;15.40;99.90
18073;DHT22;9161;47.348;9.648;2023-08-06T15:26:14;15.30;99.90
18073;DHT22;9161;47.348;9.648;2023-08-06T15:31:23;15.40;99.90
18073;DHT22;9161;47.348;9.648;2023-08-06T15:36:28;15.40;99.90
18073;DHT22;9161;47.348;9.648;2023-08-06T15:41:33;15.30;99.90
18073;DHT22;9161;47.348;9.648;2023-08-06T15:46:40;15.40;99.90
18073;DHT22;9161;47.348;9.648;2023-08-06T15:51:44;15.80;99.90
18073;DHT22;9161;47.348;9.648;2023-08-06T15:56:49;16.50;99.90
18073;DHT22;9161;47.348;9.648;2023-08-06T16:01:58;17.40;99.90
18073;DHT22;9161;47.348;9.648;2023-08-06T16:07:05;18.70;99.90
18073;DHT22;9161;47.348;9.648;2023-08-06T16:12:09;18.20;99.90
18073;DHT22;9161;47.348;9.648;2023-08-06T16:17:17;17.50;99.90
18073;DHT22;9161;47.348;9.648;2023-08-06T16:22:26;16.40;99.90
18073;DHT22;9161;47.348;9.648;2023-08-06T16:27:30;16.00;99.90
18073;DHT22;9161;47.348;9.648;2023-08-06T16:32:37;15.40;99.90
18073;DHT22;9161;47.348;9.648;2023-08-06T16:37:42;15.40;99.90
18073;DHT22;9161;47.348;9.648;2023-08-06T16:42:47;15.40;99.90
18073;DHT22;9161;47.348;9.648;2023-08-06T16:47:53;15.30;99.90
18073;DHT22;9161;47.348;9.648;2023-08-06T16:52:58;15.10;99.90
18073;DHT22;9161;47.348;9.648;2023-08-06T16:58:02;15.10;99.90
18073;DHT22;9161;47.348;9.648;2023-08-06T17:03:09;14.90;99.90
18073;DHT22;9161;47.348;9.648;2023-08-06T17:08:14;15.00;99.90
18073;DHT22;9161;47.348;9.648;2023-08-06T17:13:19;16.00;99.90
18073;DHT22;9161;47.348;9.648;2023-08-06T17:18:25;16.10;99.90
18073;DHT22;9161;47.348;9.648;2023-08-06T17:23:29;16.10;99.90
18073;DHT22;9161;47.348;9.648;2023-08-06T17:28:35;15.90;99.90
18073;DHT22;9161;47.348;9.648;2023-08-06T17:33:41;15.60;99.90
18073;DHT22;9161;47.348;9.648;2023-08-06T17:38:46;15.10;99.90
18073;DHT22;9161;47.348;9.648;2023-08-06T17:43:51;15.10;99.90
18073;DHT22;9161;47.348;9.648;2023-08-06T17:48:57;15.00;99.90
18073;DHT22;9161;47.348;9.648;2023-08-06T17:54:02;15.20;99.90
18073;DHT22;9161;47.348;9.648;2023-08-06T17:59:07;15.60;99.90
18073;DHT22;9161;47.348;9.648;2023-08-06T18:04:13;15.30;99.90
18073;DHT22;9161;47.348;9.648;2023-08-06T18:09:17;15.10;99.90
18073;DHT22;9161;47.348;9.648;2023-08-06T18:14:22;15.20;99.90
18073;DHT22;9161;47.348;9.648;2023-08-06T18:19:29;15.10;99.90
18073;DHT22;9161;47.348;9.648;2023-08-06T18:24:34;15.20;99.90
18073;DHT22;9161;47.348;9.648;2023-08-06T18:29:39;15.10;99.90
18073;DHT22;9161;47.348;9.648;2023-08-06T18:34:45;15.20;99.90
18073;DHT22;9161;47.348;9.648;2023-08-06T18:39:50;15.00;99.90
18073;DHT22;9161;47.348;9.648;2023-08-06T18:44:55;14.90;99.90
18073;DHT22;9161;47.348;9.648;2023-08-06T18:50:04;14.70;99.90
18073;DHT22;9161;47.348;9.648;2023-08-06T18:55:09;14.60;99.90
18073;DHT22;9161;47.348;9.648;2023-08-06T19:00:14;14.40;99.90
18073;DHT22;9161;47.348;9.648;2023-08-06T19:05:21;14.20;99.90
18073;DHT22;9161;47.348;9.648;2023-08-06T19:10:26;14.20;99.90
18073;DHT22;9161;47.348;9.648;2023-08-06T19:15:31;14.40;99.90
18073;DHT22;9161;47.348;9.648;2023-08-06T19:20:43;14.30;99.90
18073;DHT22;9161;47.348;9.648;2023-08-06T19:25:49;14.50;99.90
18073;DHT22;9161;47.348;9.648;2023-08-06T19:30:53;14.60;99.90
18073;DHT22;9161;47.348;9.648;2023-08-06T19:36:02;14.70;99.90
18073;DHT22;9161;47.348;9.648;2023-08-06T19:41:08;14.70;99.90
18073;DHT22;9161;47.348;9.648;2023-08-06T19:46:14;14.90;99.90
18073;DHT22;9161;47.348;9.648;2023-08-06T19:51:24;14.80;99.90
18073;DHT22;9161;47.348;9.648;2023-08-06T19:56:31;14.90;99.90
18073;DHT22;9161;47.348;9.648;2023-08-06T20:01:36;14.80;99.90
18073;DHT22;9161;47.348;9.648;2023-08-06T20:06:43;14.70;99.90
18073;DHT22;9161;47.348;9.648;2023-08-06T20:11:52;14.60;99.90
18073;DHT22;9161;47.348;9.648;2023-08-06T20:16:57;14.90;99.90
18073;DHT22;9161;47.348;9.648;2023-08-06T20:22:04;14.70;99.90
18073;DHT22;9161;47.348;9.648;2023-08-06T20:27:09;14.60;99.90
18073;DHT22;9161;47.348;9.648;2023-08-06T20:32:13;14.90;99.90
18073;DHT22;9161;47.348;9.648;2023-08-06T20:37:19;14.90;99.90
18073;DHT22;9161;47.348;9.648;2023-08-06T20:42:24;14.80;99.90
18073;DHT22;9161;47.348;9.648;2023-08-06T20:47:28;14.70;99.90
18073;DHT22;9161;47.348;9.648;2023-08-06T20:52:33;14.70;99.90
18073;DHT22;9161;47.348;9.648;2023-08-06T20:57:35;14.50;99.90
18073;DHT22;9161;47.348;9.648;2023-08-06T21:02:38;14.40;99.90
18073;DHT22;9161;47.348;9.648;2023-08-06T21:07:42;14.20;99.90
18073;DHT22;9161;47.348;9.648;2023-08-06T21:12:44;14.10;99.90
18073;DHT22;9161;47.348;9.648;2023-08-06T21:17:46;14.20;99.90
18073;DHT22;9161;47.348;9.648;2023-08-06T21:22:49;13.60;99.90
18073;DHT22;9161;47.348;9.648;2023-08-06T21:27:52;13.20;99.90
18073;DHT22;9161;47.348;9.648;2023-08-06T21:32:54;13.10;99.90
18073;DHT22;9161;47.348;9.648;2023-08-06T21:37:58;12.80;99.90
18073;DHT22;9161;47.348;9.648;2023-08-06T21:42:59;12.70;99.90
18073;DHT22;9161;47.348;9.648;2023-08-06T21:48:02;12.70;99.90
18073;DHT22;9161;47.348;9.648;2023-08-06T21:53:05;13.00;99.90
18073;DHT22;9161;47.348;9.648;2023-08-06T21:58:07;13.20;99.90
18073;DHT22;9161;47.348;9.648;2023-08-06T22:03:10;13.20;99.90
18073;DHT22;9161;47.348;9.648;2023-08-06T22:08:14;13.20;99.90
18073;DHT22;9161;47.348;9.648;2023-08-06T22:13:16;13.10;99.90
18073;DHT22;9161;47.348;9.648;2023-08-06T22:18:18;13.00;99.90
18073;DHT22;9161;47.348;9.648;2023-08-06T22:23:22;13.00;99.90
18073;DHT22;9161;47.348;9.648;2023-08-06T22:28:25;13.10;99.90
18073;DHT22;9161;47.348;9.648;2023-08-06T22:33:27;13.10;99.90
18073;DHT22;9161;47.348;9.648;2023-08-06T22:38:32;13.20;99.90
18073;DHT22;9161;47.348;9.648;2023-08-06T22:43:35;13.20;99.90
18073;DHT22;9161;47.348;9.648;2023-08-06T22:48:36;13.30;99.90
18073;DHT22;9161;47.348;9.648;2023-08-06T22:53:40;13.20;99.90
18073;DHT22;9161;47.348;9.648;2023-08-06T22:58:42;13.20;99.90
18073;DHT22;9161;47.348;9.648;2023-08-06T23:03:46;13.20;99.90
18073;DHT22;9161;47.348;9.648;2023-08-06T23:08:50;13.30;99.90
18073;DHT22;9161;47.348;9.648;2023-08-06T23:13:52;13.40;99.90
18073;DHT22;9161;47.348;9.648;2023-08-06T23:18:55;13.40;99.90
18073;DHT22;9161;47.348;9.648;2023-08-06T23:23:58;13.40;99.90
18073;DHT22;9161;47.348;9.648;2023-08-06T23:29:01;13.40;99.90
18073;DHT22;9161;47.348;9.648;2023-08-06T23:34:03;13.40;99.90
18073;DHT22;9161;47.348;9.648;2023-08-06T23:39:08;13.40;99.90
18073;DHT22;9161;47.348;9.648;2023-08-06T23:44:12;13.40;99.90
18073;DHT22;9161;47.348;9.648;2023-08-06T23:49:14;13.30;99.90
18073;DHT22;9161;47.348;9.648;2023-08-06T23:54:18;13.30;99.90
18073;DHT22;9161;47.348;9.648;2023-08-06T23:59:20;13.30;99.90
